Sloman Herakles — V2FY4 — position and weather

sailwx.info

Track history (hours):
 
Tides and Currents Weather Stations Pressure Air Temp Water Temp Dewpoint Dewpoint Depression Visibility Wind Speed Wind Dir Waves Ship Positions

Sloman Herakles

Last reported at 2017-Jan-16 12:15 UTC. Time now 2017-Jan-18 18:03 UTC.
Position N 37°34' W 000°58'.

Length 145 m; draft 6.2 m.

Type: Tanker. MMSI: 305851000.

Date/timePositionNaut miles runAvg speedWind from/ knotsBaromVisibWave heightAir tempDewpointWater temp
2017-Jan-16 12:15N 37°34' W 000°58'1 2.0
2017-Jan-16 11:30N 37°34' W 000°59'3 3.3
2017-Jan-16 10:33N 37°31' W 001°02'42410.1
2017-Jan-14 16:32N 38°09' W 009°57'1313.6
2017-Jan-14 15:33N 38°22' W 010°01'1313.5
2017-Jan-14 14:33N 38°35' W 010°04'1313.3
2017-Jan-14 13:33N 38°48' W 010°06'1313.1
2017-Jan-14 12:33N 39°01' W 010°07'1313.4
2017-Jan-14 11:33N 39°15' W 010°06'  
2017-Jan-11 16:33N 50°09' W 002°02'1211.9
2017-Jan-11 15:33N 50°12' W 001°44'1413.9
2017-Jan-11 14:33N 50°16' W 001°23'3715.3
2017-Jan-11 12:08N 50°26' W 000°27'814.4
2017-Jan-11 11:33N 50°28' W 000°14'1313.4
2017-Jan-11 10:33N 50°32' E 000°06'1412.3
2017-Jan-11 09:27N 50°35' E 000°27'1011.6
2017-Jan-11 08:33N 50°39' E 000°42'2311.6
2017-Jan-11 06:33N 50°52' E 001°12'1414.2
2017-Jan-11 05:33N 51°02' E 001°29'1414.0
2017-Jan-11 04:33N 51°12' E 001°44'1111.2
2017-Jan-11 03:33N 51°22' E 001°52'9 9.5
2017-Jan-11 02:33N 51°30' E 002°00'8 8.1
2017-Jan-11 01:33N 51°36' E 002°09'63 2.9
2017-Jan-10 03:33N 52°03' E 003°41'8 8.4
2017-Jan-10 02:33N 52°02' E 003°54'9 9.2
2017-Jan-10 01:33N 51°58' E 004°08'8 8.4
2017-Jan-10 00:33N 51°54' E 004°19'1 0.8
2017-Jan-09 23:31N 51°53' E 004°21'0 0.0
2017-Jan-09 22:31N 51°53' E 004°21'0 0.0
2017-Jan-09 21:31N 51°53' E 004°21'0 0.0
2017-Jan-09 20:31N 51°53' E 004°21'0 0.0
2017-Jan-09 19:31N 51°53' E 004°21'0 0.0
2017-Jan-09 18:32N 51°53' E 004°21'0 0.0
2017-Jan-09 17:28N 51°53' E 004°21'0 0.0
2017-Jan-09 16:31N 51°53' E 004°21'0 0.0
2017-Jan-09 15:31N 51°53' E 004°21'0 0.0
2017-Jan-09 14:31N 51°53' E 004°21'0 0.0
2017-Jan-09 13:31N 51°53' E 004°21'0 0.0
2017-Jan-09 12:31N 51°53' E 004°21'0 0.0
2017-Jan-09 11:31N 51°53' E 004°21'0 0.0
2017-Jan-09 10:25N 51°53' E 004°21'0 0.0
2017-Jan-09 09:25N 51°53' E 004°21'0 0.0
2017-Jan-09 08:31N 51°53' E 004°21'0 0.0
2017-Jan-09 07:32N 51°53' E 004°21'0 0.0
2017-Jan-09 06:25N 51°53' E 004°21'0 0.0
2017-Jan-09 05:31N 51°53' E 004°21'0 0.0
2017-Jan-09 04:31N 51°53' E 004°21'0 0.0
2017-Jan-09 03:31N 51°53' E 004°21'0 0.0
2017-Jan-09 02:32N 51°53' E 004°21'0 0.0
2017-Jan-09 01:26N 51°53' E 004°21'0 0.0
2017-Jan-09 00:32N 51°53' E 004°21'0 0.0
2017-Jan-08 23:32N 51°53' E 004°21'0 0.0
2017-Jan-08 22:32N 51°53' E 004°21'0 0.0
2017-Jan-08 21:32N 51°53' E 004°21'0 0.0
2017-Jan-08 20:25N 51°53' E 004°21'0 0.0
2017-Jan-08 19:32N 51°53' E 004°21'0 0.0
2017-Jan-08 18:32N 51°53' E 004°21'0 0.0
2017-Jan-08 17:32N 51°53' E 004°21'0 0.0
2017-Jan-08 16:26N 51°53' E 004°21'0 0.0
2017-Jan-08 15:19N 51°53' E 004°21'0 0.0
2017-Jan-08 14:25N 51°53' E 004°21'0 0.0
2017-Jan-08 13:32N 51°53' E 004°21'0 0.0
2017-Jan-08 12:31N 51°53' E 004°21'0 0.0
2017-Jan-08 11:31N 51°53' E 004°21'0 0.0
2017-Jan-08 10:19N 51°53' E 004°21'0 0.0
2017-Jan-08 09:32N 51°53' E 004°21'0 0.0
2017-Jan-08 08:32N 51°53' E 004°21'0 0.0
2017-Jan-08 07:32N 51°53' E 004°21'0 0.0
2017-Jan-08 06:31N 51°53' E 004°21'0 0.0
2017-Jan-08 05:32N 51°53' E 004°21'0 0.0
2017-Jan-08 04:31N 51°53' E 004°21'0 0.0
2017-Jan-08 03:31N 51°53' E 004°21'0 0.0
2017-Jan-08 02:26N 51°53' E 004°21'0 0.0
2017-Jan-08 01:32N 51°53' E 004°21'0 0.0
2017-Jan-08 00:32N 51°53' E 004°21'0 0.0
2017-Jan-07 23:32N 51°53' E 004°21'0 0.0
2017-Jan-07 22:31N 51°53' E 004°21'0 0.0
2017-Jan-07 21:31N 51°53' E 004°21'0 0.0
2017-Jan-07 20:31N 51°53' E 004°21'0 0.0
2017-Jan-07 19:31N 51°53' E 004°21'0 0.0
2017-Jan-07 18:25N 51°53' E 004°21'0 0.0
2017-Jan-07 17:25N 51°53' E 004°21'0 0.0
2017-Jan-07 15:31N 51°53' E 004°21'0 0.0
2017-Jan-07 14:31N 51°53' E 004°21'0 0.0
2017-Jan-07 13:25N 51°53' E 004°21'0 0.3
2017-Jan-07 12:33N 51°54' E 004°21'4 3.6
2017-Jan-07 11:33N 51°55' E 004°15'8 7.9
2017-Jan-07 10:33N 51°59' E 004°04'8 8.3
2017-Jan-07 09:33N 52°00' E 003°51'6011.2
2017-Jan-07 04:12N 51°35' E 002°23'710.3
2017-Jan-07 03:33N 51°30' E 002°15'10 9.6
2017-Jan-07 02:33N 51°22' E 002°07'9 9.4
2017-Jan-07 01:33N 51°13' E 002°03'10 9.7
2017-Jan-07 00:33N 51°08' E 001°49'10 9.8
2017-Jan-06 23:33N 51°01' E 001°38'1010.4
2017-Jan-06 22:33N 50°53' E 001°28'6410.6
2017-Jan-06 16:30N 50°20' E 000°01'4113.4
2017-Jan-06 13:27N 50°09' W 001°01'1414.7
2017-Jan-06 12:31N 50°05' W 001°22'  
Track history (hours):
 
Tides and Currents Weather Stations Pressure Air Temp Water Temp Dewpoint Dewpoint Depression Visibility Wind Speed Wind Dir Waves Ship Positions

Sloman Herakles

Last reported at 2017-Jan-16 12:15 UTC. Time now 2017-Jan-18 18:03 UTC.
Position N 37°34' W 000°58'.

Length 145 m; draft 6.2 m.

Type: Tanker. MMSI: 305851000.

Date/timePositionNaut miles runAvg speedWind from/ knotsBaromVisibWave heightAir tempDewpointWater temp
2017-Jan-16 12:15N 37°34' W 000°58'1 2.0
2017-Jan-16 11:30N 37°34' W 000°59'3 3.3
2017-Jan-16 10:33N 37°31' W 001°02'42410.1
2017-Jan-14 16:32N 38°09' W 009°57'1313.6
2017-Jan-14 15:33N 38°22' W 010°01'1313.5
2017-Jan-14 14:33N 38°35' W 010°04'1313.3
2017-Jan-14 13:33N 38°48' W 010°06'1313.1
2017-Jan-14 12:33N 39°01' W 010°07'1313.4
2017-Jan-14 11:33N 39°15' W 010°06'  
2017-Jan-11 16:33N 50°09' W 002°02'1211.9
2017-Jan-11 15:33N 50°12' W 001°44'1413.9
2017-Jan-11 14:33N 50°16' W 001°23'3715.3
2017-Jan-11 12:08N 50°26' W 000°27'814.4
2017-Jan-11 11:33N 50°28' W 000°14'1313.4
2017-Jan-11 10:33N 50°32' E 000°06'1412.3
2017-Jan-11 09:27N 50°35' E 000°27'1011.6
2017-Jan-11 08:33N 50°39' E 000°42'2311.6
2017-Jan-11 06:33N 50°52' E 001°12'1414.2
2017-Jan-11 05:33N 51°02' E 001°29'1414.0
2017-Jan-11 04:33N 51°12' E 001°44'1111.2
2017-Jan-11 03:33N 51°22' E 001°52'9 9.5
2017-Jan-11 02:33N 51°30' E 002°00'8 8.1
2017-Jan-11 01:33N 51°36' E 002°09'63 2.9
2017-Jan-10 03:33N 52°03' E 003°41'8 8.4
2017-Jan-10 02:33N 52°02' E 003°54'9 9.2
2017-Jan-10 01:33N 51°58' E 004°08'8 8.4
2017-Jan-10 00:33N 51°54' E 004°19'1 0.8
2017-Jan-09 23:31N 51°53' E 004°21'0 0.0
2017-Jan-09 22:31N 51°53' E 004°21'0 0.0
2017-Jan-09 21:31N 51°53' E 004°21'0 0.0
2017-Jan-09 20:31N 51°53' E 004°21'0 0.0
2017-Jan-09 19:31N 51°53' E 004°21'0 0.0
2017-Jan-09 18:32N 51°53' E 004°21'0 0.0
2017-Jan-09 17:28N 51°53' E 004°21'0 0.0
2017-Jan-09 16:31N 51°53' E 004°21'0 0.0
2017-Jan-09 15:31N 51°53' E 004°21'0 0.0
2017-Jan-09 14:31N 51°53' E 004°21'0 0.0
2017-Jan-09 13:31N 51°53' E 004°21'0 0.0
2017-Jan-09 12:31N 51°53' E 004°21'0 0.0
2017-Jan-09 11:31N 51°53' E 004°21'0 0.0
2017-Jan-09 10:25N 51°53' E 004°21'0 0.0
2017-Jan-09 09:25N 51°53' E 004°21'0 0.0
2017-Jan-09 08:31N 51°53' E 004°21'0 0.0
2017-Jan-09 07:32N 51°53' E 004°21'0 0.0
2017-Jan-09 06:25N 51°53' E 004°21'0 0.0
2017-Jan-09 05:31N 51°53' E 004°21'0 0.0
2017-Jan-09 04:31N 51°53' E 004°21'0 0.0
2017-Jan-09 03:31N 51°53' E 004°21'0 0.0
2017-Jan-09 02:32N 51°53' E 004°21'0 0.0
2017-Jan-09 01:26N 51°53' E 004°21'0 0.0
2017-Jan-09 00:32N 51°53' E 004°21'0 0.0
2017-Jan-08 23:32N 51°53' E 004°21'0 0.0
2017-Jan-08 22:32N 51°53' E 004°21'0 0.0
2017-Jan-08 21:32N 51°53' E 004°21'0 0.0
2017-Jan-08 20:25N 51°53' E 004°21'0 0.0
2017-Jan-08 19:32N 51°53' E 004°21'0 0.0
2017-Jan-08 18:32N 51°53' E 004°21'0 0.0
2017-Jan-08 17:32N 51°53' E 004°21'0 0.0
2017-Jan-08 16:26N 51°53' E 004°21'0 0.0
2017-Jan-08 15:19N 51°53' E 004°21'0 0.0
2017-Jan-08 14:25N 51°53' E 004°21'0 0.0
2017-Jan-08 13:32N 51°53' E 004°21'0 0.0
2017-Jan-08 12:31N 51°53' E 004°21'0 0.0
2017-Jan-08 11:31N 51°53' E 004°21'0 0.0
2017-Jan-08 10:19N 51°53' E 004°21'0 0.0
2017-Jan-08 09:32N 51°53' E 004°21'0 0.0
2017-Jan-08 08:32N 51°53' E 004°21'0 0.0
2017-Jan-08 07:32N 51°53' E 004°21'0 0.0
2017-Jan-08 06:31N 51°53' E 004°21'0 0.0
2017-Jan-08 05:32N 51°53' E 004°21'0 0.0
2017-Jan-08 04:31N 51°53' E 004°21'0 0.0
2017-Jan-08 03:31N 51°53' E 004°21'0 0.0
2017-Jan-08 02:26N 51°53' E 004°21'0 0.0
2017-Jan-08 01:32N 51°53' E 004°21'0 0.0
2017-Jan-08 00:32N 51°53' E 004°21'0 0.0
2017-Jan-07 23:32N 51°53' E 004°21'0 0.0
2017-Jan-07 22:31N 51°53' E 004°21'0 0.0
2017-Jan-07 21:31N 51°53' E 004°21'0 0.0
2017-Jan-07 20:31N 51°53' E 004°21'0 0.0
2017-Jan-07 19:31N 51°53' E 004°21'0 0.0
2017-Jan-07 18:25N 51°53' E 004°21'0 0.0
2017-Jan-07 17:25N 51°53' E 004°21'0 0.0
2017-Jan-07 15:31N 51°53' E 004°21'0 0.0
2017-Jan-07 14:31N 51°53' E 004°21'0 0.0
2017-Jan-07 13:25N 51°53' E 004°21'0 0.3
2017-Jan-07 12:33N 51°54' E 004°21'4 3.6
2017-Jan-07 11:33N 51°55' E 004°15'8 7.9
2017-Jan-07 10:33N 51°59' E 004°04'8 8.3
2017-Jan-07 09:33N 52°00' E 003°51'6011.2
2017-Jan-07 04:12N 51°35' E 002°23'710.3
2017-Jan-07 03:33N 51°30' E 002°15'10 9.6
2017-Jan-07 02:33N 51°22' E 002°07'9 9.4
2017-Jan-07 01:33N 51°13' E 002°03'10 9.7
2017-Jan-07 00:33N 51°08' E 001°49'10 9.8
2017-Jan-06 23:33N 51°01' E 001°38'1010.4
2017-Jan-06 22:33N 50°53' E 001°28'6410.6
2017-Jan-06 16:30N 50°20' E 000°01'4113.4
2017-Jan-06 13:27N 50°09' W 001°01'1414.7
2017-Jan-06 12:31N 50°05' W 001°22'  

Dump ship's entire track history